Time;durP1;ratioP1;P1;durP2;ratioP2;P2;SDS_P1;SDS_P2;PMS_P1;PMS_P2;Temp;Humidity;BMP_temperature;BMP_pressure;BME280_temperature;BME280_humidity;BME280_pressure;Samples;Min_cycle;Max_cycle;Signal;HPM_P1;HPM_P2
2020/12/03 00:00:20;;;;;;;25.50;13.15;;;1.40;99.90;;;;;;482530;242;28035;-70
2020/12/03 00:02:21;;;;;;;25.55;14.00;;;1.40;99.90;;;;;;482646;246;27905;-67
2020/12/03 00:04:23;;;;;;;29.90;15.18;;;1.40;99.90;;;;;;482661;246;27676;-68
2020/12/03 00:06:24;;;;;;;27.17;14.32;;;1.30;99.90;;;;;;482709;246;27488;-67
2020/12/03 00:08:25;;;;;;;26.73;15.15;;;1.30;99.90;;;;;;483024;246;27560;-67
2020/12/03 00:10:26;;;;;;;22.83;13.85;;;1.40;99.90;;;;;;482989;246;27567;-70
2020/12/03 00:12:28;;;;;;;32.30;14.98;;;1.40;99.90;;;;;;483016;246;27508;-68
2020/12/03 00:14:29;;;;;;;30.55;15.85;;;1.30;99.90;;;;;;483028;246;27633;-67
2020/12/03 00:16:30;;;;;;;26.48;14.95;;;1.30;99.90;;;;;;482979;246;28882;-68
2020/12/03 00:18:31;;;;;;;27.50;14.48;;;1.40;99.90;;;;;;483008;246;28120;-68
2020/12/03 00:20:33;;;;;;;27.58;15.75;;;1.30;99.90;;;;;;482951;246;27543;-69
2020/12/03 00:22:34;;;;;;;29.30;14.68;;;1.30;99.90;;;;;;482874;246;27498;-68
2020/12/03 00:24:35;;;;;;;25.42;14.82;;;1.40;99.90;;;;;;482904;246;27542;-68
2020/12/03 00:26:36;;;;;;;28.55;15.20;;;1.40;99.90;;;;;;482823;246;27554;-69
2020/12/03 00:28:38;;;;;;;27.00;14.32;;;1.40;99.90;;;;;;482847;246;27570;-67
2020/12/03 00:30:39;;;;;;;25.50;13.88;;;1.30;99.90;;;;;;482821;246;27982;-68
2020/12/03 00:32:40;;;;;;;25.45;14.25;;;1.40;99.90;;;;;;482852;246;28020;-68
2020/12/03 00:34:41;;;;;;;24.55;14.18;;;1.40;99.90;;;;;;482835;246;27563;-67
2020/12/03 00:36:43;;;;;;;30.70;15.82;;;1.40;99.90;;;;;;482835;246;27538;-69
2020/12/03 00:38:44;;;;;;;25.80;15.18;;;1.40;99.90;;;;;;482826;246;27511;-68
2020/12/03 00:40:45;;;;;;;28.65;15.35;;;1.40;99.90;;;;;;482781;246;27547;-68
2020/12/03 00:42:46;;;;;;;23.65;14.63;;;1.40;99.90;;;;;;482837;246;27538;-67
2020/12/03 00:44:48;;;;;;;26.55;14.38;;;1.40;99.90;;;;;;482832;246;27627;-67
2020/12/03 00:46:49;;;;;;;25.83;14.60;;;1.40;99.90;;;;;;482806;246;28148;-68
2020/12/03 00:48:50;;;;;;;26.08;14.13;;;1.40;99.90;;;;;;482810;246;28013;-68
2020/12/03 00:50:52;;;;;;;24.48;13.75;;;1.40;99.90;;;;;;482754;246;27540;-68
2020/12/03 00:52:53;;;;;;;28.27;14.68;;;1.40;99.90;;;;;;482674;246;27533;-69
2020/12/03 00:54:54;;;;;;;26.15;14.20;;;1.40;99.90;;;;;;482791;246;27542;-69
2020/12/03 00:56:55;;;;;;;28.23;14.23;;;1.40;99.90;;;;;;482832;246;27542;-67
2020/12/03 00:58:57;;;;;;;24.80;14.27;;;1.40;99.90;;;;;;482769;246;27546;-68
2020/12/03 01:00:58;;;;;;;23.42;13.98;;;1.40;99.90;;;;;;482757;246;28688;-69
2020/12/03 01:02:59;;;;;;;23.17;13.73;;;1.40;99.90;;;;;;482814;246;28129;-69
2020/12/03 01:05:00;;;;;;;20.70;12.73;;;1.40;99.90;;;;;;482796;246;28014;-68
2020/12/03 01:07:02;;;;;;;24.42;13.68;;;1.40;99.90;;;;;;482811;246;27618;-67
2020/12/03 01:09:03;;;;;;;23.55;13.68;;;1.40;99.90;;;;;;482774;246;27614;-68
2020/12/03 01:11:04;;;;;;;23.10;12.60;;;1.40;99.90;;;;;;482799;246;27483;-68
2020/12/03 01:13:05;;;;;;;25.37;13.55;;;1.40;99.90;;;;;;482846;246;27554;-69
2020/12/03 01:15:07;;;;;;;23.52;14.00;;;1.40;99.90;;;;;;482766;246;27546;-68
2020/12/03 01:17:08;;;;;;;24.52;14.82;;;1.40;99.90;;;;;;482780;246;27990;-68
2020/12/03 01:19:09;;;;;;;21.60;13.02;;;1.40;99.90;;;;;;482848;246;28001;-70
2020/12/03 01:21:10;;;;;;;23.17;13.90;;;1.40;99.90;;;;;;482787;246;27522;-68
2020/12/03 01:23:12;;;;;;;21.25;13.32;;;1.40;99.90;;;;;;482817;246;27532;-67
2020/12/03 01:25:13;;;;;;;21.35;13.20;;;1.40;99.90;;;;;;482803;246;27535;-69
2020/12/03 01:27:14;;;;;;;21.70;13.80;;;1.40;99.90;;;;;;482864;246;27491;-68
2020/12/03 01:29:15;;;;;;;25.85;14.65;;;1.40;99.90;;;;;;482839;246;27546;-68
2020/12/03 01:31:17;;;;;;;22.25;13.62;;;1.40;99.90;;;;;;482790;246;27494;-67
2020/12/03 01:33:18;;;;;;;22.77;12.73;;;1.50;99.90;;;;;;482791;246;28127;-68
2020/12/03 01:35:19;;;;;;;28.45;15.85;;;1.50;99.90;;;;;;482799;246;28071;-69
2020/12/03 01:37:20;;;;;;;26.60;15.05;;;1.40;99.90;;;;;;482871;246;27503;-67
2020/12/03 01:39:22;;;;;;;20.73;12.93;;;1.40;99.90;;;;;;482991;246;27532;-68
2020/12/03 01:41:23;;;;;;;22.30;14.00;;;1.40;99.90;;;;;;482840;246;27495;-67
2020/12/03 01:43:24;;;;;;;22.40;13.35;;;1.40;99.90;;;;;;482854;246;27562;-68
2020/12/03 01:45:25;;;;;;;27.83;14.85;;;1.40;99.90;;;;;;482798;246;27567;-68
2020/12/03 01:47:27;;;;;;;24.10;13.80;;;1.40;99.90;;;;;;482813;246;27540;-67
2020/12/03 01:49:28;;;;;;;25.15;14.73;;;1.40;99.90;;;;;;482827;246;28007;-68
2020/12/03 01:51:29;;;;;;;26.52;15.52;;;1.40;99.90;;;;;;482768;246;27950;-68
2020/12/03 01:53:30;;;;;;;22.42;13.18;;;1.40;99.90;;;;;;482796;246;27531;-67
2020/12/03 01:55:32;;;;;;;25.23;15.48;;;1.40;99.90;;;;;;482803;246;27648;-68
2020/12/03 01:57:33;;;;;;;25.10;14.70;;;1.50;99.90;;;;;;482831;246;27521;-67
2020/12/03 01:59:34;;;;;;;24.55;14.25;;;1.40;99.90;;;;;;482830;246;27625;-69
2020/12/03 02:01:35;;;;;;;21.60;13.20;;;1.40;99.90;;;;;;482745;246;27561;-68
2020/12/03 02:03:37;;;;;;;28.00;15.18;;;1.40;99.90;;;;;;482811;246;28002;-67
2020/12/03 02:05:38;;;;;;;24.05;13.95;;;1.40;99.90;;;;;;482774;246;30028;-67
2020/12/03 02:07:39;;;;;;;21.87;12.77;;;1.40;99.90;;;;;;482791;246;27582;-68
2020/12/03 02:09:41;;;;;;;22.33;13.50;;;1.40;99.90;;;;;;482793;246;27618;-67
2020/12/03 02:11:42;;;;;;;20.90;13.00;;;1.50;99.90;;;;;;482743;246;27546;-69
2020/12/03 02:13:43;;;;;;;20.80;13.68;;;1.40;99.90;;;;;;482760;246;27542;-68
2020/12/03 02:15:44;;;;;;;28.73;13.98;;;1.40;99.90;;;;;;483127;246;27411;-68
2020/12/03 02:17:46;;;;;;;20.08;12.50;;;1.40;99.90;;;;;;483190;246;27491;-68
2020/12/03 02:19:47;;;;;;;22.65;13.77;;;1.50;99.90;;;;;;483183;246;28080;-69
2020/12/03 02:21:48;;;;;;;21.12;13.10;;;1.40;99.90;;;;;;483150;246;28070;-69
2020/12/03 02:23:49;;;;;;;21.27;12.82;;;1.40;99.90;;;;;;483199;246;27516;-68
2020/12/03 02:25:51;;;;;;;25.37;13.50;;;1.50;99.90;;;;;;483143;246;27570;-67
2020/12/03 02:27:52;;;;;;;20.27;13.15;;;1.50;99.90;;;;;;482873;246;27871;-69
2020/12/03 02:29:53;;;;;;;23.60;13.57;;;1.50;99.90;;;;;;482848;246;27633;-68
2020/12/03 02:31:54;;;;;;;20.80;12.75;;;1.50;99.90;;;;;;482779;246;27634;-68
2020/12/03 02:33:56;;;;;;;23.77;13.50;;;1.50;99.90;;;;;;482822;246;28034;-68
2020/12/03 02:35:57;;;;;;;21.95;13.05;;;1.40;99.90;;;;;;482829;246;28065;-68
2020/12/03 02:37:58;;;;;;;20.73;13.05;;;1.50;99.90;;;;;;482831;246;28129;-68
2020/12/03 02:40:00;;;;;;;18.98;12.15;;;1.50;99.90;;;;;;482811;246;27656;-68
2020/12/03 02:42:01;;;;;;;20.00;12.52;;;1.50;99.90;;;;;;482760;246;27546;-68
2020/12/03 02:44:02;;;;;;;21.25;12.88;;;1.50;99.90;;;;;;482809;246;27526;-69
2020/12/03 02:46:03;;;;;;;22.05;14.13;;;1.40;99.90;;;;;;482821;246;27491;-67
2020/12/03 02:48:04;;;;;;;19.70;12.85;;;1.40;99.90;;;;;;482840;246;27532;-68
2020/12/03 02:50:06;;;;;;;19.27;12.98;;;1.40;99.90;;;;;;482778;246;28088;-68
2020/12/03 02:52:07;;;;;;;22.02;13.32;;;1.40;99.90;;;;;;482775;246;28001;-67
2020/12/03 02:54:08;;;;;;;23.75;13.70;;;1.50;99.90;;;;;;482847;246;27633;-70
2020/12/03 02:56:09;;;;;;;19.17;11.43;;;1.50;99.90;;;;;;482838;246;27509;-67
2020/12/03 02:58:11;;;;;;;22.13;13.55;;;1.50;99.90;;;;;;482840;246;27535;-68
2020/12/03 03:00:12;;;;;;;20.80;13.23;;;1.50;99.90;;;;;;482797;246;27533;-68
2020/12/03 03:02:13;;;;;;;21.75;13.38;;;1.50;99.90;;;;;;482903;246;27558;-68
2020/12/03 03:04:14;;;;;;;21.12;13.35;;;1.50;99.90;;;;;;482981;246;27650;-68
2020/12/03 03:06:16;;;;;;;21.17;12.90;;;1.50;99.90;;;;;;482910;246;27994;-68
2020/12/03 03:08:17;;;;;;;18.98;13.05;;;1.50;99.90;;;;;;482977;246;28002;-68
2020/12/03 03:10:21;;;;;;;21.00;13.23;;;1.60;99.90;;;;;;482931;246;27542;-68
2020/12/03 03:12:19;;;;;;;21.65;13.10;;;1.50;99.90;;;;;;482813;246;27488;-68
2020/12/03 03:14:21;;;;;;;21.08;13.98;;;1.50;99.90;;;;;;482977;246;27632;-69
2020/12/03 03:16:22;;;;;;;19.80;12.45;;;1.50;99.90;;;;;;483017;246;27604;-67
2020/12/03 03:18:23;;;;;;;23.25;13.45;;;1.50;99.90;;;;;;483004;246;27532;-67
2020/12/03 03:20:25;;;;;;;24.55;13.82;;;1.50;99.90;;;;;;482959;246;28066;-70
2020/12/03 03:22:26;;;;;;;20.77;13.80;;;1.50;99.90;;;;;;482975;246;28069;-68
2020/12/03 03:24:27;;;;;;;22.15;14.02;;;1.50;99.90;;;;;;482887;246;28109;-68
2020/12/03 03:26:28;;;;;;;21.65;13.18;;;1.50;99.90;;;;;;482846;246;27572;-68
2020/12/03 03:28:30;;;;;;;22.20;13.13;;;1.50;99.90;;;;;;482795;246;27534;-68
2020/12/03 03:30:31;;;;;;;21.85;12.70;;;1.60;99.90;;;;;;482767;246;27883;-68
2020/12/03 03:32:32;;;;;;;22.60;14.20;;;1.60;99.90;;;;;;482825;246;27595;-67
2020/12/03 03:34:33;;;;;;;20.92;12.95;;;1.60;99.90;;;;;;482819;246;27645;-67
2020/12/03 03:36:35;;;;;;;21.55;14.07;;;1.50;99.90;;;;;;482805;246;28102;-69
2020/12/03 03:38:36;;;;;;;22.13;13.60;;;1.60;99.90;;;;;;482777;246;28017;-68
2020/12/03 03:40:37;;;;;;;22.27;13.30;;;1.50;99.90;;;;;;482713;246;27533;-68
2020/12/03 03:42:38;;;;;;;21.12;13.05;;;1.50;99.90;;;;;;482633;246;27539;-68
2020/12/03 03:44:40;;;;;;;25.27;13.48;;;1.50;99.90;;;;;;482731;246;27887;-69
2020/12/03 03:46:41;;;;;;;24.87;14.07;;;1.50;99.90;;;;;;482702;246;27566;-68
2020/12/03 03:48:42;;;;;;;25.10;15.02;;;1.50;99.90;;;;;;482631;246;27569;-68
2020/12/03 03:50:43;;;;;;;22.60;14.15;;;1.50;99.90;;;;;;482559;246;27529;-68
2020/12/03 03:52:46;;;;;;;20.35;13.23;;;1.50;99.90;;;;;;482652;246;28796;-67
2020/12/03 03:54:46;;;;;;;23.12;14.75;;;1.60;99.90;;;;;;482693;246;28064;-68
2020/12/03 03:56:47;;;;;;;26.55;15.40;;;1.60;99.90;;;;;;482760;246;27580;-68
2020/12/03 03:58:48;;;;;;;23.55;15.13;;;1.50;99.90;;;;;;482726;246;27646;-68
2020/12/03 04:00:50;;;;;;;22.87;13.40;;;1.50;99.90;;;;;;482641;246;27525;-68
2020/12/03 04:02:51;;;;;;;26.55;16.05;;;1.50;99.90;;;;;;482762;246;28026;-69
2020/12/03 04:04:52;;;;;;;25.10;14.85;;;1.60;99.90;;;;;;482752;246;27538;-69
2020/12/03 04:06:53;;;;;;;25.15;15.02;;;1.60;99.90;;;;;;482738;246;28065;-68
2020/12/03 04:08:55;;;;;;;20.12;13.75;;;1.60;99.90;;;;;;482788;246;28066;-68
2020/12/03 04:10:56;;;;;;;22.58;14.05;;;1.60;99.90;;;;;;482756;246;27546;-67
2020/12/03 04:12:57;;;;;;;21.23;14.32;;;1.60;99.90;;;;;;482811;246;27626;-69
2020/12/03 04:15:02;;;;;;;23.70;14.23;;;1.60;99.90;;;;;;482785;246;27571;-67
2020/12/03 04:17:00;;;;;;;21.65;13.62;;;1.60;99.90;;;;;;482585;246;27679;-68
2020/12/03 04:19:01;;;;;;;25.50;15.15;;;1.60;99.90;;;;;;482872;246;27664;-69
2020/12/03 04:21:02;;;;;;;24.67;15.50;;;1.60;99.90;;;;;;482798;246;27503;-68
2020/12/03 04:23:03;;;;;;;21.17;13.38;;;1.60;99.90;;;;;;482897;246;28078;-68
2020/12/03 04:25:05;;;;;;;23.42;14.77;;;1.60;99.90;;;;;;482837;246;28085;-68
2020/12/03 04:27:06;;;;;;;26.52;15.50;;;1.60;99.90;;;;;;482835;246;27610;-67
2020/12/03 04:29:07;;;;;;;22.45;14.65;;;1.60;99.90;;;;;;482869;246;27565;-71
2020/12/03 04:31:08;;;;;;;22.73;14.57;;;1.70;99.90;;;;;;482796;246;27496;-68
2020/12/03 04:33:10;;;;;;;20.48;13.90;;;1.60;99.90;;;;;;482897;246;27570;-68
2020/12/03 04:35:11;;;;;;;23.30;15.32;;;1.60;99.90;;;;;;482874;246;27501;-67
2020/12/03 04:37:12;;;;;;;24.60;15.13;;;1.60;99.90;;;;;;482786;246;27555;-68
2020/12/03 04:39:14;;;;;;;22.87;14.13;;;1.60;99.90;;;;;;482864;246;28087;-68
2020/12/03 04:41:16;;;;;;;23.83;16.12;;;1.60;99.90;;;;;;482806;246;27605;-67
2020/12/03 04:43:16;;;;;;;28.05;16.02;;;1.60;99.90;;;;;;482816;246;27539;-68
2020/12/03 04:45:17;;;;;;;24.90;15.23;;;1.60;99.90;;;;;;482830;246;27657;-69
2020/12/03 04:47:19;;;;;;;27.00;16.10;;;1.50;99.90;;;;;;482841;246;28093;-67
2020/12/03 04:49:26;;;;;;;24.27;15.80;;;1.60;99.90;;;;;;482866;246;28022;-69
2020/12/03 04:51:27;;;;;;;26.70;15.95;;;1.60;99.90;;;;;;482782;246;27650;-67
2020/12/03 04:53:28;;;;;;;26.08;16.20;;;1.60;99.90;;;;;;482867;246;27606;-69
2020/12/03 04:55:29;;;;;;;31.17;18.00;;;1.50;99.90;;;;;;482865;246;28830;-67
2020/12/03 04:57:31;;;;;;;26.60;15.48;;;1.60;99.90;;;;;;482800;246;28045;-68
2020/12/03 04:59:32;;;;;;;23.73;15.77;;;1.50;99.90;;;;;;482830;246;27534;-68
2020/12/03 05:01:33;;;;;;;26.62;16.50;;;1.50;99.90;;;;;;482800;246;27514;-67
2020/12/03 05:03:34;;;;;;;24.67;15.20;;;1.60;99.90;;;;;;482841;246;27648;-69
2020/12/03 05:05:36;;;;;;;28.02;16.33;;;1.60;99.90;;;;;;482810;246;27985;-69
2020/12/03 05:07:37;;;;;;;29.25;16.58;;;1.50;99.90;;;;;;482797;246;27535;-67
2020/12/03 05:09:38;;;;;;;25.17;15.38;;;1.60;99.90;;;;;;482795;246;27999;-68
2020/12/03 05:11:39;;;;;;;25.85;16.75;;;1.60;99.90;;;;;;482783;246;28025;-67
2020/12/03 05:13:41;;;;;;;25.42;15.95;;;1.60;99.90;;;;;;482835;246;27679;-69
2020/12/03 05:15:42;;;;;;;23.27;14.85;;;1.60;99.90;;;;;;482846;246;27531;-69
2020/12/03 05:17:43;;;;;;;23.42;15.13;;;1.60;99.90;;;;;;482783;246;27563;-68
2020/12/03 05:19:44;;;;;;;23.10;15.15;;;1.70;99.90;;;;;;482789;246;27562;-68
2020/12/03 05:21:46;;;;;;;20.92;14.48;;;1.60;99.90;;;;;;482745;246;27546;-68
2020/12/03 05:23:47;;;;;;;22.58;14.95;;;1.60;99.90;;;;;;482770;246;27589;-70
2020/12/03 05:25:48;;;;;;;24.02;14.52;;;1.60;99.90;;;;;;482826;246;28127;-68
2020/12/03 05:27:49;;;;;;;24.65;14.87;;;1.60;99.90;;;;;;482811;246;28009;-69
2020/12/03 05:29:51;;;;;;;21.58;13.70;;;1.60;99.90;;;;;;482795;246;27556;-68
2020/12/03 05:31:52;;;;;;;23.75;14.63;;;1.50;99.90;;;;;;482794;246;27571;-70
2020/12/03 05:33:53;;;;;;;22.45;14.95;;;1.50;99.90;;;;;;482813;246;27514;-67
2020/12/03 05:35:54;;;;;;;26.00;15.10;;;1.60;99.90;;;;;;482832;246;27646;-68
2020/12/03 05:37:56;;;;;;;23.05;15.68;;;1.60;99.90;;;;;;482828;246;27579;-69
2020/12/03 05:39:57;;;;;;;21.50;13.30;;;1.60;99.90;;;;;;482815;246;27541;-67
2020/12/03 05:41:58;;;;;;;26.42;16.00;;;1.60;99.90;;;;;;482812;246;28104;-69
2020/12/03 05:43:59;;;;;;;22.58;14.30;;;1.60;99.90;;;;;;482823;246;27931;-67
2020/12/03 05:46:01;;;;;;;22.77;14.80;;;1.50;99.90;;;;;;482806;246;27649;-67
2020/12/03 05:48:02;;;;;;;24.48;14.00;;;1.50;99.90;;;;;;482840;246;27634;-69
2020/12/03 05:50:03;;;;;;;23.48;14.65;;;1.50;99.90;;;;;;482873;246;27567;-67
2020/12/03 05:52:04;;;;;;;26.20;14.98;;;1.50;99.90;;;;;;482875;246;27543;-68
2020/12/03 05:54:06;;;;;;;24.08;14.35;;;1.50;99.90;;;;;;482971;246;27564;-67
2020/12/03 05:56:07;;;;;;;27.15;16.30;;;1.50;99.90;;;;;;482982;246;27987;-68
2020/12/03 05:58:08;;;;;;;23.73;15.52;;;1.50;99.90;;;;;;483011;246;28151;-70
2020/12/03 06:00:10;;;;;;;22.85;14.63;;;1.50;99.90;;;;;;482926;246;27495;-69
2020/12/03 06:02:11;;;;;;;24.17;14.85;;;1.50;99.90;;;;;;482971;246;27615;-68
2020/12/03 06:04:12;;;;;;;24.48;15.23;;;1.50;99.90;;;;;;482945;246;27486;-68
2020/12/03 06:06:13;;;;;;;22.83;14.45;;;1.50;99.90;;;;;;482974;246;27519;-68
2020/12/03 06:08:15;;;;;;;23.50;13.95;;;1.50;99.90;;;;;;482981;246;27637;-69
2020/12/03 06:10:16;;;;;;;23.67;15.00;;;1.50;99.90;;;;;;482837;246;27645;-70
2020/12/03 06:12:17;;;;;;;23.67;14.98;;;1.50;99.90;;;;;;482837;246;28094;-67
2020/12/03 06:14:18;;;;;;;22.37;14.55;;;1.40;99.90;;;;;;482818;246;28085;-68
2020/12/03 06:16:20;;;;;;;25.17;15.40;;;1.40;99.90;;;;;;482815;246;27519;-68
2020/12/03 06:18:21;;;;;;;22.90;15.13;;;1.40;99.90;;;;;;482809;246;27565;-69
2020/12/03 06:20:22;;;;;;;26.35;15.10;;;1.40;99.90;;;;;;482769;246;27554;-67
2020/12/03 06:22:23;;;;;;;25.45;16.23;;;1.40;99.90;;;;;;482854;246;27531;-68
2020/12/03 06:24:25;;;;;;;25.83;16.77;;;1.40;99.90;;;;;;482802;246;27563;-69
2020/12/03 06:26:26;;;;;;;23.48;15.77;;;1.40;99.90;;;;;;482743;246;28128;-67
2020/12/03 06:28:27;;;;;;;23.38;14.10;;;1.50;99.90;;;;;;482757;246;28009;-68
2020/12/03 06:30:28;;;;;;;26.87;15.48;;;1.50;99.90;;;;;;482669;246;28700;-68
2020/12/03 06:32:30;;;;;;;22.42;14.52;;;1.60;99.90;;;;;;482737;246;27549;-68
2020/12/03 06:34:31;;;;;;;25.05;15.45;;;1.60;99.90;;;;;;482710;246;27539;-68
2020/12/03 06:36:34;;;;;;;23.92;15.43;;;1.60;99.90;;;;;;482733;246;27539;-68
2020/12/03 06:38:33;;;;;;;21.40;13.90;;;1.60;99.90;;;;;;482614;246;27553;-69
2020/12/03 06:40:35;;;;;;;23.08;14.85;;;1.60;99.90;;;;;;482715;246;27559;-69
2020/12/03 06:42:36;;;;;;;21.42;14.38;;;1.60;99.90;;;;;;482794;246;28022;-67
2020/12/03 06:44:37;;;;;;;24.55;13.93;;;1.60;99.90;;;;;;482779;246;28030;-68
2020/12/03 06:46:38;;;;;;;24.00;15.30;;;1.70;99.90;;;;;;482776;246;27542;-68
2020/12/03 06:48:40;;;;;;;22.33;14.43;;;1.60;99.90;;;;;;482843;246;27638;-68
2020/12/03 06:50:41;;;;;;;24.73;15.55;;;1.60;99.90;;;;;;482812;246;27522;-69
2020/12/03 06:52:42;;;;;;;23.08;14.75;;;1.60;99.90;;;;;;482838;246;27542;-68
2020/12/03 06:54:43;;;;;;;20.58;14.40;;;1.60;99.90;;;;;;482836;246;27613;-68
2020/12/03 06:56:45;;;;;;;25.25;15.20;;;1.60;99.90;;;;;;482845;246;27625;-69
2020/12/03 06:58:46;;;;;;;21.45;13.50;;;1.60;99.90;;;;;;482850;246;28138;-69
2020/12/03 07:00:47;;;;;;;23.58;15.85;;;1.70;99.90;;;;;;482770;246;28009;-69
2020/12/03 07:02:48;;;;;;;22.23;14.27;;;1.70;99.90;;;;;;482771;246;27566;-68
2020/12/03 07:04:50;;;;;;;25.17;15.18;;;1.70;99.90;;;;;;482771;246;27527;-69
2020/12/03 07:06:51;;;;;;;23.30;14.65;;;1.60;99.90;;;;;;482827;246;27574;-69
2020/12/03 07:08:52;;;;;;;26.25;15.93;;;1.60;99.90;;;;;;482873;243;27498;-68
2020/12/03 07:10:53;;;;;;;23.42;15.55;;;1.60;99.90;;;;;;483113;246;27559;-69
2020/12/03 07:12:55;;;;;;;25.88;16.80;;;1.60;99.90;;;;;;483111;246;28744;-68
2020/12/03 07:14:56;;;;;;;26.30;15.95;;;1.60;99.90;;;;;;483249;246;29113;-67
2020/12/03 07:16:57;;;;;;;25.95;16.15;;;1.60;99.90;;;;;;483213;246;27649;-67
2020/12/03 07:18:59;;;;;;;25.20;14.35;;;1.60;99.90;;;;;;483166;246;27460;-67
2020/12/03 07:21:00;;;;;;;27.20;15.48;;;1.60;99.90;;;;;;483119;246;27540;-67
2020/12/03 07:23:02;;;;;;;23.33;15.50;;;1.60;99.90;;;;;;483142;246;27771;-68
2020/12/03 07:25:02;;;;;;;24.70;15.60;;;1.60;99.90;;;;;;483182;246;27504;-67
2020/12/03 07:27:05;;;;;;;25.00;15.20;;;1.60;99.90;;;;;;483230;246;27435;-68
2020/12/03 07:29:05;;;;;;;24.75;16.17;;;1.50;99.90;;;;;;482825;246;28104;-67
2020/12/03 07:31:06;;;;;;;23.58;15.10;;;1.50;99.90;;;;;;482774;246;28064;-67
2020/12/03 07:33:07;;;;;;;26.92;15.35;;;1.60;99.90;;;;;;482920;246;27631;-69
2020/12/03 07:35:09;;;;;;;27.37;17.00;;;1.50;99.90;;;;;;482996;246;27515;-67
2020/12/03 07:37:10;;;;;;;23.05;14.82;;;1.60;99.90;;;;;;483216;246;27564;-69
2020/12/03 07:39:11;;;;;;;23.65;15.05;;;1.50;99.90;;;;;;483243;246;27805;-67
2020/12/03 07:41:12;;;;;;;27.77;17.62;;;1.60;99.90;;;;;;483166;246;27518;-67
2020/12/03 07:43:14;;;;;;;24.00;15.43;;;1.60;99.90;;;;;;483199;246;28029;-69
2020/12/03 07:45:15;;;;;;;24.10;14.98;;;1.60;99.90;;;;;;483207;246;27973;-67
2020/12/03 07:47:16;;;;;;;25.08;16.85;;;1.60;99.90;;;;;;483198;246;28055;-68
2020/12/03 07:49:17;;;;;;;23.87;15.50;;;1.60;99.90;;;;;;483172;246;27522;-69
2020/12/03 07:51:19;;;;;;;22.90;14.52;;;1.50;99.90;;;;;;483169;246;27555;-67
2020/12/03 07:53:20;;;;;;;24.85;15.82;;;1.50;99.90;;;;;;483234;246;27539;-68
2020/12/03 07:55:21;;;;;;;26.30;16.10;;;1.60;99.90;;;;;;483245;246;27589;-68
2020/12/03 07:57:22;;;;;;;22.65;14.05;;;1.60;99.90;;;;;;483228;246;27496;-68
2020/12/03 07:59:24;;;;;;;22.70;14.68;;;1.70;99.90;;;;;;483214;246;27974;-68
2020/12/03 08:01:25;;;;;;;23.10;14.38;;;1.70;99.90;;;;;;483068;246;29852;-68
2020/12/03 08:03:26;;;;;;;23.25;15.52;;;1.80;99.90;;;;;;483211;246;27566;-68
2020/12/03 08:05:27;;;;;;;21.12;14.30;;;1.80;99.90;;;;;;483182;246;27435;-67
2020/12/03 08:07:29;;;;;;;21.80;14.10;;;1.80;99.90;;;;;;483245;246;27577;-69
2020/12/03 08:09:30;;;;;;;21.75;14.38;;;1.80;99.90;;;;;;483238;246;27443;-68
2020/12/03 08:11:31;;;;;;;23.75;14.90;;;1.80;99.90;;;;;;483152;246;27452;-68
2020/12/03 08:13:32;;;;;;;19.98;13.88;;;1.80;99.90;;;;;;483198;246;27525;-68
2020/12/03 08:15:34;;;;;;;20.20;12.95;;;1.90;99.90;;;;;;483206;246;27906;-70
2020/12/03 08:17:35;;;;;;;23.05;13.02;;;1.80;99.90;;;;;;483222;246;27992;-68
2020/12/03 08:19:37;;;;;;;22.37;14.70;;;1.90;99.90;;;;;;483169;246;27538;-68
2020/12/03 08:21:38;;;;;;;18.42;11.48;;;2.00;99.90;;;;;;483121;246;27447;-70
2020/12/03 08:23:39;;;;;;;18.00;12.50;;;1.90;99.90;;;;;;483227;246;27415;-67
2020/12/03 08:25:40;;;;;;;18.20;12.43;;;1.90;99.90;;;;;;483222;246;27452;-69
2020/12/03 08:27:41;;;;;;;21.60;13.77;;;1.90;99.90;;;;;;483219;246;27494;-67
2020/12/03 08:29:42;;;;;;;17.25;11.40;;;1.90;99.90;;;;;;483230;246;27461;-67
2020/12/03 08:31:44;;;;;;;19.00;13.10;;;2.00;99.90;;;;;;483231;246;28194;-70
2020/12/03 08:33:45;;;;;;;18.90;12.00;;;2.00;99.90;;;;;;483347;246;27887;-68
2020/12/03 08:35:46;;;;;;;17.35;11.27;;;2.00;99.90;;;;;;483379;246;27472;-67
2020/12/03 08:37:48;;;;;;;17.60;11.32;;;2.10;99.90;;;;;;483383;246;27407;-67
2020/12/03 08:39:55;;;;;;;17.67;11.55;;;2.00;99.90;;;;;;483402;246;27444;-69
2020/12/03 08:41:50;;;;;;;15.20;10.40;;;2.00;99.90;;;;;;482996;246;27546;-71
2020/12/03 08:43:54;;;;;;;15.02;10.57;;;2.00;99.90;;;;;;483386;246;27400;-71
2020/12/03 08:46:02;;;;;;;17.75;11.60;;;2.00;99.90;;;;;;483264;246;27902;-71
2020/12/03 08:47:54;;;;;;;19.40;11.45;;;2.10;99.90;;;;;;482756;246;29698;-72
2020/12/03 08:49:57;;;;;;;19.00;12.45;;;2.20;99.90;;;;;;483331;246;27499;-72
2020/12/03 08:51:59;;;;;;;20.60;12.52;;;2.30;99.90;;;;;;483191;246;27455;-71
2020/12/03 08:53:58;;;;;;;18.62;11.73;;;2.40;99.90;;;;;;483101;246;27610;-69
2020/12/03 08:55:59;;;;;;;17.40;11.18;;;2.50;99.90;;;;;;483249;246;27471;-69
2020/12/03 08:58:01;;;;;;;18.30;11.40;;;2.60;99.90;;;;;;483216;246;27863;-70
2020/12/03 09:00:01;;;;;;;19.40;11.98;;;2.70;99.90;;;;;;483213;246;27511;-71
2020/12/03 09:02:03;;;;;;;20.92;12.25;;;2.70;99.90;;;;;;483226;246;28031;-70
2020/12/03 09:04:04;;;;;;;16.55;11.32;;;2.80;99.90;;;;;;483239;246;28095;-69
2020/12/03 09:06:07;;;;;;;17.10;9.75;;;2.90;99.90;;;;;;483223;246;27543;-68
2020/12/03 09:08:06;;;;;;;14.55;9.95;;;2.80;99.90;;;;;;483065;246;27439;-69
2020/12/03 09:10:08;;;;;;;17.33;10.48;;;2.90;99.90;;;;;;483180;246;27420;-70
2020/12/03 09:12:09;;;;;;;16.92;10.60;;;2.90;99.90;;;;;;483213;246;27563;-70
2020/12/03 09:14:10;;;;;;;19.42;11.57;;;2.80;99.90;;;;;;483185;246;27554;-70
2020/12/03 09:16:11;;;;;;;21.50;10.80;;;2.80;99.90;;;;;;483170;246;27517;-71
2020/12/03 09:18:13;;;;;;;16.42;9.60;;;2.90;99.90;;;;;;483204;246;28058;-71
2020/12/03 09:20:14;;;;;;;14.35;10.13;;;2.80;99.90;;;;;;483161;246;27964;-70
2020/12/03 09:22:15;;;;;;;15.70;10.00;;;2.90;99.90;;;;;;482905;243;27543;-68
2020/12/03 09:24:17;;;;;;;14.00;10.00;;;3.00;99.90;;;;;;480261;243;27454;-69
2020/12/03 09:26:19;;;;;;;12.52;8.80;;;3.00;99.90;;;;;;481858;243;27426;-70
2020/12/03 09:28:19;;;;;;;14.73;9.68;;;2.90;99.90;;;;;;483158;246;27451;-67
2020/12/03 09:30:20;;;;;;;16.70;9.52;;;3.00;99.90;;;;;;483145;246;27543;-70
2020/12/03 09:32:21;;;;;;;12.23;8.23;;;3.10;99.90;;;;;;483171;246;27635;-68
2020/12/03 09:34:23;;;;;;;12.65;8.77;;;3.10;99.90;;;;;;483103;243;27464;-73
2020/12/03 09:36:24;;;;;;;12.77;9.68;;;3.10;99.90;;;;;;481781;243;28007;-73
2020/12/03 09:38:25;;;;;;;16.67;10.05;;;3.10;99.90;;;;;;481524;247;27938;-72
2020/12/03 09:40:26;;;;;;;12.77;10.00;;;3.10;99.90;;;;;;481461;246;27483;-73
2020/12/03 09:42:34;;;;;;;13.13;9.27;;;3.00;99.90;;;;;;481559;246;27411;-72
2020/12/03 09:44:29;;;;;;;13.65;10.00;;;3.00;99.90;;;;;;481194;247;27504;-72
2020/12/03 09:46:30;;;;;;;13.45;10.20;;;3.10;99.90;;;;;;481608;246;27411;-71
2020/12/03 09:48:32;;;;;;;13.55;9.32;;;3.20;99.90;;;;;;481616;246;27919;-72
2020/12/03 09:50:33;;;;;;;14.77;9.63;;;3.20;99.90;;;;;;481426;246;28130;-73
2020/12/03 09:52:34;;;;;;;13.43;9.63;;;3.20;99.90;;;;;;481268;246;27991;-72
2020/12/03 09:54:35;;;;;;;13.07;8.68;;;3.30;99.90;;;;;;481720;246;27443;-72
2020/12/03 09:56:36;;;;;;;16.98;8.95;;;3.20;99.90;;;;;;481784;246;27507;-76
2020/12/03 09:58:38;;;;;;;14.85;10.35;;;3.20;99.90;;;;;;481750;247;27487;-72
2020/12/03 10:00:39;;;;;;;13.90;9.35;;;3.30;99.90;;;;;;481712;246;27432;-73
2020/12/03 10:02:40;;;;;;;14.20;10.00;;;3.30;99.90;;;;;;481772;246;27400;-71
2020/12/03 10:04:42;;;;;;;17.67;10.73;;;3.20;99.90;;;;;;481660;246;27511;-73
2020/12/03 10:06:43;;;;;;;16.10;10.82;;;3.20;99.90;;;;;;481577;247;28230;-72
2020/12/03 10:08:44;;;;;;;15.32;10.48;;;3.20;99.90;;;;;;481505;246;28009;-73
2020/12/03 10:10:45;;;;;;;17.30;10.70;;;3.10;99.90;;;;;;481512;246;27571;-72
2020/12/03 10:12:47;;;;;;;15.13;9.90;;;3.20;99.90;;;;;;481580;246;27534;-72
2020/12/03 10:14:49;;;;;;;14.75;10.05;;;3.20;99.90;;;;;;481601;246;27554;-74
2020/12/03 10:16:49;;;;;;;15.15;10.30;;;3.20;99.90;;;;;;481556;246;27444;-75
2020/12/03 10:18:50;;;;;;;15.32;10.43;;;3.20;99.90;;;;;;481569;246;27468;-73
2020/12/03 10:20:52;;;;;;;20.75;14.27;;;3.30;99.90;;;;;;481524;246;27539;-72
2020/12/03 10:22:53;;;;;;;17.62;10.70;;;3.40;99.90;;;;;;481546;246;28637;-73